Time;durP1;ratioP1;P1;durP2;ratioP2;P2;SDS_P1;SDS_P2;PMS_P1;PMS_P2;Temp;Humidity;BMP_temperature;BMP_pressure;BME280_temperature;BME280_humidity;BME280_pressure;Samples;Min_cycle;Max_cycle;Signal;HPM_P1;HPM_P2
2021/08/09 00:02:16;;;;;;;20.12;8.70;;;;;;;16.96;79.99;94730.38;1640966;84;21018;-53
2021/08/09 00:04:44;;;;;;;22.55;7.95;;;;;;;16.92;80.18;94738.91;1639105;84;21618;-53
2021/08/09 00:07:11;;;;;;;33.05;7.53;;;;;;;16.85;80.27;94731.02;1652759;84;21038;-53
2021/08/09 00:09:38;;;;;;;28.55;7.58;;;;;;;16.83;80.35;94724.41;1651612;84;20997;-53
2021/08/09 00:12:07;;;;;;;24.90;7.37;;;;;;;16.76;80.62;94726.23;1659758;84;21097;-54
2021/08/09 00:14:38;;;;;;;28.20;9.18;;;;;;;16.66;81.02;94724.83;1654223;84;20982;-53
2021/08/09 00:17:05;;;;;;;33.35;10.03;;;;;;;16.62;81.22;94727.84;1657837;85;21004;-54
2021/08/09 00:19:33;;;;;;;23.47;8.55;;;;;;;16.61;81.33;94721.36;1673580;85;21068;-53
2021/08/09 00:22:03;;;;;;;25.20;7.47;;;;;;;16.61;81.60;94725.53;1666758;85;21477;-53
2021/08/09 00:24:30;;;;;;;31.07;8.93;;;;;;;16.62;81.73;94721.50;1670692;85;21078;-54
2021/08/09 00:26:57;;;;;;;23.77;7.67;;;;;;;16.62;81.92;94708.39;1663479;85;21432;-53
2021/08/09 00:29:24;;;;;;;29.30;8.15;;;;;;;16.61;81.94;94703.30;1672742;85;21012;-55
2021/08/09 00:31:51;;;;;;;35.23;7.87;;;;;;;16.63;81.95;94701.58;1666654;85;21489;-54
2021/08/09 00:34:19;;;;;;;22.15;7.10;;;;;;;16.67;81.94;94701.35;1665465;84;20957;-54
2021/08/09 00:36:47;;;;;;;17.32;7.53;;;;;;;16.71;81.81;94702.67;1677061;85;21146;-53
2021/08/09 00:39:15;;;;;;;20.02;6.97;;;;;;;16.73;81.67;94707.75;1666789;85;21013;-54
2021/08/09 00:41:42;;;;;;;20.05;6.35;;;;;;;16.72;81.50;94722.90;1666371;85;21067;-53
2021/08/09 00:44:09;;;;;;;27.07;6.72;;;;;;;16.66;81.66;94726.22;1673527;84;21084;-54
2021/08/09 00:46:37;;;;;;;31.48;7.58;;;;;;;16.61;82.11;94724.92;1669967;84;21065;-53
2021/08/09 00:49:04;;;;;;;21.02;6.55;;;;;;;16.56;82.27;94717.89;1659990;84;21513;-53
2021/08/09 00:51:33;;;;;;;19.20;7.60;;;;;;;16.55;82.33;94716.38;1664943;85;21493;-54
2021/08/09 00:54:02;;;;;;;17.73;6.53;;;;;;;16.51;82.12;94710.27;1669458;83;21088;-53
2021/08/09 00:56:30;;;;;;;17.98;6.87;;;;;;;16.48;82.18;94722.33;1683969;83;20987;-54
2021/08/09 00:58:59;;;;;;;9.55;6.33;;;;;;;16.43;82.42;94721.63;1670965;83;21358;-53
2021/08/09 01:01:26;;;;;;;16.57;6.42;;;;;;;16.41;82.58;94718.58;1690965;83;21783;-54
2021/08/09 01:03:54;;;;;;;19.55;6.90;;;;;;;16.35;82.54;94717.11;1681686;83;20939;-54
2021/08/09 01:06:22;;;;;;;35.20;6.42;;;;;;;16.32;82.77;94719.45;1690195;83;21220;-52
2021/08/09 01:09:25;;;;;;;23.55;7.03;;;;;;;16.29;83.09;94707.15;1680798;84;21088;-52
2021/08/09 01:12:24;;;;;;;27.05;7.47;;;;;;;16.27;83.33;94703.34;1685942;83;21062;-53
2021/08/09 01:15:18;;;;;;;27.02;7.10;;;;;;;16.27;83.71;94714.45;1690854;83;21060;-54
2021/08/09 01:17:46;;;;;;;24.27;6.95;;;;;;;16.31;83.55;94722.70;1691059;83;21070;-52
2021/08/09 01:20:41;;;;;;;23.42;6.75;;;;;;;16.29;83.67;94726.58;1687061;83;20983;-53
2021/08/09 01:23:55;;;;;;;22.15;6.33;;;;;;;16.24;83.95;94737.64;1689283;83;21075;-53
2021/08/09 01:26:54;;;;;;;26.80;6.87;;;;;;;16.18;84.29;94741.71;1685555;83;21616;-53
2021/08/09 01:29:34;;;;;;;18.75;5.87;;;;;;;16.14;84.53;94733.44;1686954;83;21256;-54
2021/08/09 01:32:01;;;;;;;13.48;6.00;;;;;;;16.09;84.48;94723.78;1690695;83;21133;-54
2021/08/09 01:34:28;;;;;;;16.42;7.40;;;;;;;16.04;84.54;94727.25;1681083;83;21101;-54
2021/08/09 01:36:57;;;;;;;16.93;6.95;;;;;;;16.00;84.66;94724.52;1680101;84;21505;-53
2021/08/09 01:39:24;;;;;;;9.13;6.40;;;;;;;15.95;84.73;94721.80;1654694;85;21202;-53
2021/08/09 01:41:53;;;;;;;24.65;7.05;;;;;;;15.92;84.71;94718.60;1665290;85;21119;-52
2021/08/09 01:44:20;;;;;;;16.07;6.40;;;;;;;15.93;84.79;94716.61;1670905;85;21032;-54
2021/08/09 01:46:48;;;;;;;9.78;5.92;;;;;;;15.96;84.59;94708.09;1674687;85;21615;-53
2021/08/09 01:49:15;;;;;;;16.07;6.42;;;;;;;16.02;84.43;94710.31;1667736;84;21017;-53
2021/08/09 01:51:43;;;;;;;12.95;6.20;;;;;;;16.04;84.14;94698.11;1656006;85;21056;-53
2021/08/09 01:54:10;;;;;;;10.15;5.85;;;;;;;16.06;83.98;94705.32;1671663;85;21346;-53
2021/08/09 01:56:39;;;;;;;8.28;6.08;;;;;;;16.11;83.78;94699.72;1653882;85;21041;-53
2021/08/09 01:59:07;;;;;;;9.38;5.45;;;;;;;16.14;83.52;94701.52;1655731;85;21034;-54
2021/08/09 02:01:35;;;;;;;13.98;6.37;;;;;;;16.19;83.45;94716.87;1675371;85;21060;-53
2021/08/09 02:04:02;;;;;;;11.30;7.20;;;;;;;16.17;83.33;94716.59;1667662;85;21028;-53
2021/08/09 02:06:30;;;;;;;14.87;7.03;;;;;;;16.10;83.64;94718.36;1674691;85;21187;-53
2021/08/09 02:08:59;;;;;;;12.07;6.00;;;;;;;16.01;83.90;94708.79;1659163;84;21060;-53
2021/08/09 02:11:55;;;;;;;20.37;7.20;;;;;;;15.94;84.13;94699.46;1667966;85;21023;-53
2021/08/09 02:14:25;;;;;;;6.97;5.20;;;;;;;15.91;84.44;94699.04;1662348;85;20985;-54
2021/08/09 02:17:21;;;;;;;12.78;6.12;;;;;;;15.87;84.49;94698.48;1667954;85;21059;-55
2021/08/09 02:20:02;;;;;;;12.58;6.15;;;;;;;15.83;84.76;94699.31;1665665;84;21147;-54
2021/08/09 02:22:51;;;;;;;14.85;5.97;;;;;;;15.74;84.90;94685.55;1669847;85;20943;-53
2021/08/09 02:25:22;;;;;;;8.98;5.65;;;;;;;15.74;85.02;94684.80;1655455;85;20974;-54
2021/08/09 02:28:04;;;;;;;12.68;6.37;;;;;;;15.73;85.06;94676.33;1668119;85;20991;-54
2021/08/09 02:30:31;;;;;;;13.50;7.05;;;;;;;15.73;85.13;94679.11;1650288;85;20962;-54
2021/08/09 02:32:59;;;;;;;7.45;5.70;;;;;;;15.73;85.13;94677.08;1652176;85;21795;-54
2021/08/09 02:35:27;;;;;;;12.60;6.67;;;;;;;15.72;84.95;94675.55;1670380;85;20974;-55
2021/08/09 02:37:55;;;;;;;12.78;6.35;;;;;;;15.69;84.89;94675.77;1669530;85;21022;-53
2021/08/09 02:40:23;;;;;;;11.05;5.67;;;;;;;15.70;84.95;94675.27;1666300;84;21042;-53
2021/08/09 02:42:50;;;;;;;12.20;5.87;;;;;;;15.74;84.72;94681.38;1660150;84;20954;-54
2021/08/09 02:45:17;;;;;;;11.75;5.72;;;;;;;15.77;84.58;94677.64;1669396;84;21574;-53
2021/08/09 02:47:44;;;;;;;14.35;6.17;;;;;;;15.79;84.73;94683.49;1676664;85;21133;-53
2021/08/09 02:50:11;;;;;;;12.40;6.45;;;;;;;15.81;84.64;94682.99;1675013;84;20982;-52
2021/08/09 02:52:39;;;;;;;10.95;5.55;;;;;;;15.81;84.49;94683.77;1670801;85;21421;-53
2021/08/09 02:55:08;;;;;;;11.83;6.15;;;;;;;15.80;84.68;94686.41;1671891;84;21026;-54
2021/08/09 02:57:36;;;;;;;12.98;5.80;;;;;;;15.77;84.60;94685.96;1665361;84;21101;-52
2021/08/09 03:00:07;;;;;;;11.05;5.22;;;;;;;15.71;84.64;94689.28;1669483;85;21014;-53
2021/08/09 03:02:37;;;;;;;17.37;6.15;;;;;;;15.67;84.78;94697.66;1670850;83;21050;-53
2021/08/09 03:05:07;;;;;;;7.50;5.20;;;;;;;15.58;84.67;94698.52;1669878;85;21466;-54
2021/08/09 03:07:36;;;;;;;12.43;5.92;;;;;;;15.51;84.78;94710.02;1673493;84;20994;-53
2021/08/09 03:10:10;;;;;;;16.55;5.87;;;;;;;15.46;85.05;94714.86;1669582;84;21111;-53
2021/08/09 03:12:39;;;;;;;10.58;6.28;;;;;;;15.46;85.39;94732.88;1677442;85;21418;-54
2021/08/09 03:15:09;;;;;;;10.63;5.50;;;;;;;15.45;85.73;94751.37;1678604;85;21406;-53
2021/08/09 03:17:37;;;;;;;14.07;6.42;;;;;;;15.47;85.96;94778.77;1662961;85;20990;-53
2021/08/09 03:20:06;;;;;;;21.48;6.33;;;;;;;15.49;85.78;94819.27;1673469;85;21025;-53
2021/08/09 03:22:35;;;;;;;20.57;7.03;;;;;;;15.45;85.84;94807.60;1666041;85;21764;-54
2021/08/09 03:25:02;;;;;;;20.27;6.58;;;;;;;15.43;86.18;94821.18;1668147;85;21432;-53
2021/08/09 03:27:29;;;;;;;19.27;6.47;;;;;;;15.48;86.28;94801.70;1669007;85;20963;-54
2021/08/09 03:29:56;;;;;;;31.68;14.40;;;;;;;15.56;86.14;94818.87;1674041;85;21037;-54
2021/08/09 03:32:23;;;;;;;26.00;11.85;;;;;;;15.59;85.80;94824.88;1662227;85;20947;-52
2021/08/09 03:34:51;;;;;;;21.60;11.75;;;;;;;15.61;85.69;94815.45;1664793;85;21128;-54
2021/08/09 03:37:18;;;;;;;20.60;11.25;;;;;;;15.59;85.58;94826.27;1670009;84;21069;-53
2021/08/09 03:39:44;;;;;;;23.45;9.55;;;;;;;15.60;85.77;94845.82;1674598;85;21576;-54
2021/08/09 03:42:11;;;;;;;18.87;8.30;;;;;;;15.61;85.83;94837.64;1665153;85;20999;-54
2021/08/09 03:44:38;;;;;;;13.32;7.28;;;;;;;15.64;85.85;94845.00;1678488;83;21078;-52
2021/08/09 03:47:05;;;;;;;18.42;7.90;;;;;;;15.71;85.75;94847.39;1698289;83;21890;-53
2021/08/09 03:49:33;;;;;;;13.65;7.70;;;;;;;15.79;85.71;94854.11;1688792;83;20966;-53
2021/08/09 03:52:01;;;;;;;18.42;8.80;;;;;;;15.88;85.54;94843.54;1677466;83;21018;-53
2021/08/09 03:54:28;;;;;;;12.07;8.58;;;;;;;15.94;85.42;94852.08;1682306;83;21014;-53
2021/08/09 03:56:55;;;;;;;17.95;8.03;;;;;;;15.99;85.19;94838.94;1686818;83;20995;-52
2021/08/09 03:59:22;;;;;;;21.30;8.90;;;;;;;16.04;84.86;94840.25;1692149;83;21156;-53
2021/08/09 04:01:49;;;;;;;18.73;8.75;;;;;;;16.09;84.70;94845.16;1696838;83;20956;-53
2021/08/09 04:04:18;;;;;;;16.17;9.73;;;;;;;16.15;84.61;94842.61;1680681;83;21189;-55
2021/08/09 04:06:45;;;;;;;14.43;8.28;;;;;;;16.22;84.72;94835.88;1693054;83;21510;-53
2021/08/09 04:09:12;;;;;;;12.03;7.08;;;;;;;16.28;84.50;94831.95;1706651;83;21102;-52
2021/08/09 04:11:39;;;;;;;4.55;3.87;;;;;;;16.40;85.40;94840.63;1688890;83;21131;-53
2021/08/09 04:14:06;;;;;;;21.17;4.20;;;;;;;16.86;85.81;94847.09;1692905;83;21118;-54
2021/08/09 04:16:33;;;;;;;11.20;3.98;;;;;;;17.56;83.81;94842.92;1680176;84;21027;-54
2021/08/09 04:19:00;;;;;;;8.20;3.58;;;;;;;18.33;80.65;94834.09;1687566;83;21477;-55
2021/08/09 04:21:27;;;;;;;9.60;4.62;;;;;;;18.98;77.16;94846.92;1680706;83;20947;-54
2021/08/09 04:23:54;;;;;;;15.35;4.25;;;;;;;19.50;75.54;94849.59;1703948;84;21131;-54
2021/08/09 04:26:23;;;;;;;2.77;2.58;;;;;;;19.90;72.94;94852.64;1701772;83;21078;-53
2021/08/09 04:28:50;;;;;;;3.27;2.90;;;;;;;20.20;71.65;94848.90;1683364;83;20971;-54
2021/08/09 04:31:18;;;;;;;2.00;1.80;;;;;;;20.41;70.72;94851.58;1674236;84;20998;-55
2021/08/09 04:33:48;;;;;;;6.35;2.00;;;;;;;20.58;69.73;94857.92;1677184;84;20956;-52
2021/08/09 04:36:15;;;;;;;5.70;2.08;;;;;;;20.75;68.65;94869.86;1679531;84;21131;-54
2021/08/09 04:38:43;;;;;;;4.08;2.00;;;;;;;20.86;68.48;94872.66;1679357;84;21192;-53
2021/08/09 04:41:11;;;;;;;6.85;1.65;;;;;;;20.96;67.91;94865.53;1670443;84;20975;-54
2021/08/09 04:43:40;;;;;;;5.35;2.72;;;;;;;21.02;67.58;94867.67;1670752;85;21422;-56
2021/08/09 04:46:07;;;;;;;3.42;2.22;;;;;;;21.06;67.04;94855.58;1670631;85;21030;-53
2021/08/09 04:48:37;;;;;;;11.73;1.87;;;;;;;21.11;67.02;94870.22;1672088;85;21215;-55
2021/08/09 04:51:04;;;;;;;39.35;4.42;;;;;;;21.15;66.58;94856.72;1672058;84;21069;-54
2021/08/09 04:53:32;;;;;;;3.60;1.62;;;;;;;21.19;65.86;94864.20;1665960;85;21019;-55
2021/08/09 04:55:59;;;;;;;3.42;2.35;;;;;;;21.21;65.64;94868.02;1669941;85;21101;-54
2021/08/09 04:58:26;;;;;;;2.58;1.70;;;;;;;21.25;65.39;94871.97;1670901;85;21333;-54
2021/08/09 05:00:53;;;;;;;11.43;6.92;;;;;;;21.25;65.05;94871.97;1669391;85;21160;-54
2021/08/09 05:03:20;;;;;;;11.48;2.22;;;;;;;21.24;64.72;94876.79;1664794;85;20975;-54
2021/08/09 05:05:48;;;;;;;4.80;2.58;;;;;;;21.25;64.52;94876.91;1666718;85;21003;-54
2021/08/09 05:08:15;;;;;;;1.60;1.50;;;;;;;21.26;64.42;94877.69;1677606;85;21307;-53
2021/08/09 05:10:42;;;;;;;2.72;1.12;;;;;;;21.26;64.43;94881.23;1667035;84;20955;-54
2021/08/09 05:13:10;;;;;;;36.98;3.58;;;;;;;21.27;64.55;94876.41;1676779;84;21147;-54
2021/08/09 05:15:40;;;;;;;5.03;2.25;;;;;;;21.26;64.31;94877.03;1678027;85;21022;-54
2021/08/09 05:18:10;;;;;;;1.75;1.65;;;;;;;21.26;64.15;94877.03;1676358;84;21130;-54
2021/08/09 05:20:37;;;;;;;2.65;2.10;;;;;;;21.25;63.97;94874.77;1615735;85;21120;-55
2021/08/09 05:23:04;;;;;;;3.50;2.12;;;;;;;21.26;63.80;94870.69;1628930;85;21577;-55
2021/08/09 05:25:31;;;;;;;4.40;2.52;;;;;;;21.23;63.85;94865.47;1670550;85;21141;-54
2021/08/09 05:27:58;;;;;;;3.40;2.12;;;;;;;21.23;63.87;94866.09;1676971;85;20994;-54
2021/08/09 05:30:27;;;;;;;5.70;1.82;;;;;;;21.24;63.94;94862.02;1668799;85;21580;-53
2021/08/09 05:32:53;;;;;;;8.70;1.87;;;;;;;21.23;64.07;94866.09;1673176;83;21138;-53
2021/08/09 05:35:20;;;;;;;8.55;1.90;;;;;;;21.22;63.90;94872.34;1680482;83;21533;-56
2021/08/09 05:37:48;;;;;;;8.18;1.22;;;;;;;21.26;64.06;94877.69;1682894;84;20994;-54
2021/08/09 05:40:16;;;;;;;2.00;1.57;;;;;;;21.29;63.46;94876.00;1675908;83;21570;-54
2021/08/09 05:42:48;;;;;;;8.18;1.98;;;;;;;21.35;63.62;94862.00;1682457;83;21483;-54
2021/08/09 05:45:12;;;;;;;1.92;1.75;;;;;;;21.39;63.88;94844.29;1684451;83;21038;-60
2021/08/09 05:47:40;;;;;;;6.20;2.17;;;;;;;21.38;64.19;94830.17;1688872;83;21091;-55
2021/08/09 05:50:10;;;;;;;10.05;3.05;;;;;;;21.34;64.46;94821.29;1684664;83;21115;-55
2021/08/09 05:52:39;;;;;;;8.75;2.47;;;;;;;21.34;64.69;94818.48;1693219;83;21163;-56
2021/08/09 05:55:09;;;;;;;16.05;7.53;;;;;;;21.35;64.83;94808.81;1674004;83;21467;-55
2021/08/09 05:57:36;;;;;;;42.62;20.12;;;;;;;21.36;65.69;94797.73;1673012;83;21018;-55
2021/08/09 06:00:06;;;;;;;37.93;19.82;;;;;;;21.34;66.20;94775.88;1678329;83;21137;-57
2021/08/09 06:02:42;;;;;;;8.00;4.80;;;;;;;21.32;66.64;94760.87;1667218;84;21362;-56
2021/08/09 06:05:16;;;;;;;5.90;4.17;;;;;;;21.24;66.86;94769.04;1645367;85;21070;-57
2021/08/09 06:07:44;;;;;;;15.15;7.17;;;;;;;21.17;67.03;94798.20;1665943;83;21055;-53
2021/08/09 06:10:12;;;;;;;14.43;9.05;;;;;;;21.16;67.07;94805.08;1684456;83;21038;-55
2021/08/09 06:12:40;;;;;;;16.27;8.13;;;;;;;21.19;67.50;94804.03;1671271;83;21068;-63
2021/08/09 06:15:09;;;;;;;19.70;11.90;;;;;;;21.19;67.40;94804.03;1674809;83;21158;-58
2021/08/09 06:17:38;;;;;;;25.12;12.45;;;;;;;21.20;67.04;94820.95;1669665;83;21510;-67
2021/08/09 06:20:07;;;;;;;16.85;8.18;;;;;;;21.22;66.91;94823.37;1674325;83;21056;-60
2021/08/09 06:22:36;;;;;;;8.73;5.17;;;;;;;21.26;67.35;94820.31;1672939;83;21115;-59
2021/08/09 06:25:04;;;;;;;7.28;4.12;;;;;;;21.30;67.47;94816.60;1679332;84;21037;-59
2021/08/09 06:27:31;;;;;;;20.75;8.55;;;;;;;21.37;67.56;94825.85;1675777;83;21114;-63
2021/08/09 06:30:00;;;;;;;35.70;21.75;;;;;;;21.42;67.32;94839.83;1664007;84;21084;-63
2021/08/09 06:32:28;;;;;;;72.58;35.40;;;;;;;21.48;66.97;94844.77;1646812;84;21077;-58
2021/08/09 06:34:55;;;;;;;61.45;37.85;;;;;;;21.51;66.86;94828.33;1665736;83;21019;-60
2021/08/09 06:37:22;;;;;;;47.45;28.02;;;;;;;21.54;66.79;94833.55;1678048;83;21045;-58
2021/08/09 06:39:48;;;;;;;24.50;13.20;;;;;;;21.53;66.90;94808.22;1656443;85;21170;-62
2021/08/09 06:42:16;;;;;;;14.80;8.98;;;;;;;21.51;66.50;94811.53;1678318;84;21269;-61
2021/08/09 06:44:45;;;;;;;14.60;8.33;;;;;;;21.48;66.58;94811.81;1664379;84;21101;-59
2021/08/09 06:47:11;;;;;;;15.98;6.83;;;;;;;21.46;66.74;94810.17;1662769;83;21082;-58
2021/08/09 06:49:39;;;;;;;19.50;9.40;;;;;;;21.45;66.71;94800.25;1682528;83;20980;-68
2021/08/09 06:52:06;;;;;;;7.12;4.35;;;;;;;21.46;66.77;94797.58;1667788;83;21106;-59
2021/08/09 06:54:34;;;;;;;5.30;3.60;;;;;;;21.45;66.75;94786.26;1680368;83;21571;-60
2021/08/09 06:57:03;;;;;;;3.85;2.40;;;;;;;21.44;67.02;94774.94;1674990;83;22407;-58
2021/08/09 06:59:31;;;;;;;3.47;2.40;;;;;;;21.41;67.56;94766.92;1655123;84;21206;-58
2021/08/09 07:01:59;;;;;;;4.55;2.80;;;;;;;21.43;67.07;94755.19;1662928;82;21001;-60
2021/08/09 07:04:26;;;;;;;3.40;2.10;;;;;;;21.45;67.18;94754.06;1661633;84;21120;-60
2021/08/09 07:06:53;;;;;;;18.37;6.35;;;;;;;21.45;67.60;94757.61;1674470;84;21019;-59
2021/08/09 07:09:22;;;;;;;19.07;5.90;;;;;;;21.45;67.96;94773.66;1669608;83;21502;-57
2021/08/09 07:11:49;;;;;;;20.40;4.97;;;;;;;21.43;67.93;94781.78;1666004;84;21175;-58
2021/08/09 07:14:21;;;;;;;12.65;3.98;;;;;;;21.42;68.40;94781.05;1665242;83;21050;-61
2021/08/09 07:16:45;;;;;;;8.03;4.03;;;;;;;21.39;68.81;94772.91;1677528;83;21219;-56
2021/08/09 07:19:16;;;;;;;7.92;5.10;;;;;;;21.38;69.18;94793.16;1657026;83;21171;-59
2021/08/09 07:21:44;;;;;;;17.73;7.33;;;;;;;21.39;69.75;94794.67;1677799;83;21085;-56
2021/08/09 07:24:11;;;;;;;46.75;24.32;;;;;;;21.39;70.55;94775.08;1666852;83;21086;-56
2021/08/09 07:26:39;;;;;;;71.02;36.53;;;;;;;21.40;71.46;94740.84;1664859;83;21508;-57
2021/08/09 07:29:06;;;;;;;22.65;11.88;;;;;;;21.38;72.92;94769.98;1667921;83;21238;-58
2021/08/09 07:31:34;;;;;;;10.50;5.40;;;;;;;21.27;73.37;94795.25;1684997;83;21073;-58
2021/08/09 07:34:02;;;;;;;16.95;7.20;;;;;;;21.17;73.29;94762.59;1667625;83;21035;-60
2021/08/09 07:36:29;;;;;;;17.45;8.48;;;;;;;21.19;73.87;94745.27;1665389;83;21096;-59
2021/08/09 07:38:56;;;;;;;15.43;6.90;;;;;;;21.23;73.96;94752.13;1669391;83;21132;-56
2021/08/09 07:41:24;;;;;;;10.53;4.83;;;;;;;21.32;74.24;94755.27;1671637;83;21884;-57
2021/08/09 07:43:51;;;;;;;10.93;4.47;;;;;;;21.38;74.97;94755.99;1674840;83;21075;-57
2021/08/09 07:46:18;;;;;;;7.75;3.67;;;;;;;21.49;75.32;94769.94;1680216;83;21587;-57
2021/08/09 07:48:45;;;;;;;18.75;7.60;;;;;;;21.61;74.43;94779.78;1678508;83;21093;-59
2021/08/09 07:51:13;;;;;;;16.75;7.92;;;;;;;21.70;74.52;94783.09;1663669;84;21139;-58
2021/08/09 07:53:41;;;;;;;12.37;6.62;;;;;;;21.81;75.27;94780.86;1643570;84;21093;-57
2021/08/09 07:56:08;;;;;;;22.02;7.35;;;;;;;21.92;74.37;94774.55;1635123;85;21145;-58
2021/08/09 07:58:37;;;;;;;13.72;7.85;;;;;;;22.09;73.71;94771.73;1613616;86;21012;-55
2021/08/09 08:01:04;;;;;;;16.32;9.28;;;;;;;22.24;73.52;94781.94;1636052;86;21937;-58
2021/08/09 08:03:31;;;;;;;18.75;8.75;;;;;;;22.33;71.66;94781.59;1641834;84;21081;-60
2021/08/09 08:05:58;;;;;;;13.00;8.20;;;;;;;22.39;70.72;94780.95;1649202;84;21166;-56
2021/08/09 08:08:26;;;;;;;19.05;12.10;;;;;;;22.53;70.75;94775.61;1674133;83;21002;-56
2021/08/09 08:10:55;;;;;;;13.13;7.97;;;;;;;22.67;69.59;94781.44;1682874;83;21108;-57
2021/08/09 08:13:22;;;;;;;10.25;6.80;;;;;;;22.83;68.66;94781.17;1683801;83;21518;-62
2021/08/09 08:15:51;;;;;;;9.60;7.22;;;;;;;23.00;67.21;94786.71;1670306;83;21521;-58
2021/08/09 08:18:19;;;;;;;11.73;7.72;;;;;;;23.15;66.87;94783.51;1674006;83;21157;-58
2021/08/09 08:20:48;;;;;;;12.15;8.50;;;;;;;23.34;65.74;94779.46;1666661;83;21053;-57
2021/08/09 08:23:16;;;;;;;10.53;7.15;;;;;;;23.50;65.65;94778.49;1673139;83;21096;-58
2021/08/09 08:25:43;;;;;;;8.33;5.10;;;;;;;23.65;65.39;94781.62;1668618;83;21145;-58
2021/08/09 08:28:10;;;;;;;9.80;4.97;;;;;;;23.75;63.99;94779.19;1679716;83;21062;-65
2021/08/09 08:30:37;;;;;;;5.70;4.47;;;;;;;23.89;63.55;94778.75;1682238;83;21069;-64
2021/08/09 08:33:06;;;;;;;10.38;6.10;;;;;;;23.99;63.40;94780.63;1676297;83;21190;-58
2021/08/09 08:35:33;;;;;;;9.55;4.80;;;;;;;24.09;62.79;94783.81;1661049;83;21200;-62
2021/08/09 08:38:00;;;;;;;8.35;5.33;;;;;;;24.22;62.02;94795.13;1678174;83;21038;-60
2021/08/09 08:40:29;;;;;;;7.60;4.15;;;;;;;24.33;61.00;94791.48;1686537;83;21979;-58
2021/08/09 08:42:57;;;;;;;6.62;4.25;;;;;;;24.46;60.19;94792.94;1680223;83;21133;-58
2021/08/09 08:45:26;;;;;;;8.25;4.47;;;;;;;24.57;58.94;94800.47;1675628;83;21163;-59
2021/08/09 08:47:55;;;;;;;8.70;4.97;;;;;;;24.66;57.00;94793.01;1643108;84;21078;-60
2021/08/09 08:50:23;;;;;;;7.95;5.87;;;;;;;24.80;57.51;94798.78;1642224;85;21049;-59
2021/08/09 08:52:52;;;;;;;17.67;5.22;;;;;;;25.00;56.25;94802.38;1643616;85;21062;-59
2021/08/09 08:55:20;;;;;;;9.68;4.15;;;;;;;25.12;54.97;94805.11;1681779;83;21934;-60
2021/08/09 08:57:49;;;;;;;13.80;4.90;;;;;;;25.20;54.58;94811.00;1679907;82;21080;-57
2021/08/09 09:00:18;;;;;;;24.23;5.25;;;;;;;25.31;55.07;94807.20;1678534;83;21106;-61
2021/08/09 09:02:45;;;;;;;7.55;5.00;;;;;;;25.47;55.11;94804.72;1678484;83;21136;-59
2021/08/09 09:05:18;;;;;;;11.05;3.70;;;;;;;25.66;55.77;94810.98;1677364;83;21021;-58
2021/08/09 09:07:52;;;;;;;17.25;4.80;;;;;;;25.80;52.85;94804.00;1662245;83;21265;-59
2021/08/09 09:10:24;;;;;;;10.70;4.30;;;;;;;25.92;52.31;94803.91;1672094;83;21190;-58
2021/08/09 09:13:14;;;;;;;13.13;5.10;;;;;;;25.96;51.82;94803.02;1669388;83;21097;-58
2021/08/09 09:16:03;;;;;;;;;;;;;;;25.97;53.14;94808.76;1688502;83;21145;-60
2021/08/09 09:18:55;;;;;;;13.32;5.47;;;;;;;26.03;53.45;94805.82;1664548;83;20215;-60
2021/08/09 09:21:35;;;;;;;4.80;3.70;;;;;;;26.09;54.64;94803.66;1668436;83;21759;-63
2021/08/09 09:24:15;;;;;;;12.98;8.35;;;;;;;26.23;54.81;94805.88;1672870;83;21541;-58
2021/08/09 09:26:46;;;;;;;5.55;4.40;;;;;;;26.33;54.77;94802.67;1677643;83;21057;-59
2021/08/09 09:29:16;;;;;;;7.25;4.00;;;;;;;26.47;54.02;94801.32;1670587;83;21350;-61
2021/08/09 09:31:46;;;;;;;10.48;5.90;;;;;;;26.60;55.18;94798.47;1676343;83;21050;-61
2021/08/09 09:34:16;;;;;;;7.20;4.25;;;;;;;26.73;54.09;94805.47;1678577;83;21869;-58
2021/08/09 09:36:58;;;;;;;8.60;5.70;;;;;;;26.76;54.38;94804.36;1686757;83;21054;-58
2021/08/09 09:39:39;;;;;;;7.92;4.65;;;;;;;26.84;54.96;94800.94;1670884;84;22147;-57
2021/08/09 09:42:10;;;;;;;8.93;4.92;;;;;;;27.00;55.26;94790.53;1673951;83;22256;-60
2021/08/09 09:44:39;;;;;;;6.20;3.92;;;;;;;27.17;55.33;94789.44;1680773;84;21551;-56
2021/08/09 09:47:27;;;;;;;12.70;5.75;;;;;;;27.24;54.72;94790.91;1682929;83;21136;-60
2021/08/09 09:49:57;;;;;;;7.30;4.20;;;;;;;27.29;54.23;94794.25;1670237;83;21160;-59
2021/08/09 09:52:45;;;;;;;4.85;3.40;;;;;;;27.34;55.33;94799.63;1674051;83;21401;-59
2021/08/09 09:55:10;;;;;;;8.08;3.60;;;;;;;27.40;54.59;94801.67;1675116;83;21056;-60
2021/08/09 09:57:38;;;;;;;5.60;3.90;;;;;;;27.46;54.26;94803.03;1681324;83;21082;-58
2021/08/09 10:00:11;;;;;;;8.43;5.30;;;;;;;27.52;55.35;94800.80;1673794;84;21163;-56
2021/08/09 10:02:45;;;;;;;10.25;4.72;;;;;;;27.64;54.32;94801.23;1680014;83;21081;-59
2021/08/09 10:05:12;;;;;;;5.90;4.03;;;;;;;27.78;55.30;94803.41;1672768;83;21199;-57
2021/08/09 10:07:41;;;;;;;6.95;3.60;;;;;;;27.82;53.60;94805.23;1673195;83;21024;-59
2021/08/09 10:10:09;;;;;;;5.55;3.90;;;;;;;27.82;52.75;94800.99;1675770;83;21034;-61
2021/08/09 10:12:39;;;;;;;7.62;3.98;;;;;;;27.81;52.80;94805.11;1678717;83;21698;-57
2021/08/09 10:15:07;;;;;;;10.25;3.80;;;;;;;27.88;53.26;94800.16;1688032;83;21093;-58
2021/08/09 10:17:36;;;;;;;4.92;3.60;;;;;;;28.02;53.30;94797.30;1685500;83;21048;-57
2021/08/09 10:20:09;;;;;;;6.55;4.25;;;;;;;28.25;52.49;94792.47;1678029;83;21156;-58
2021/08/09 10:22:36;;;;;;;12.70;4.17;;;;;;;28.48;52.09;94803.21;1677549;83;21058;-58
2021/08/09 10:25:05;;;;;;;10.10;4.70;;;;;;;28.46;51.40;94794.53;1676813;83;21133;-59
2021/08/09 10:27:51;;;;;;;16.37;12.15;;;;;;;28.61;51.59;94792.47;1639873;84;21543;-64
2021/08/09 10:30:21;;;;;;;6.58;4.12;;;;;;;28.88;51.54;94790.03;1667254;83;21060;-58
2021/08/09 10:32:55;;;;;;;5.03;3.87;;;;;;;29.13;50.68;94803.10;1670461;83;21072;-63
2021/08/09 10:35:39;;;;;;;9.50;4.45;;;;;;;29.20;50.16;94791.67;1679302;83;21150;-58
2021/08/09 10:38:19;;;;;;;4.65;3.60;;;;;;;29.25;50.72;94792.90;1682887;83;22288;-59
2021/08/09 10:41:03;;;;;;;4.17;3.67;;;;;;;29.26;50.32;94791.58;1680929;83;21092;-60
2021/08/09 10:43:30;;;;;;;7.08;4.28;;;;;;;29.16;49.39;94789.89;1668038;83;21166;-61
2021/08/09 10:45:58;;;;;;;6.05;3.50;;;;;;;28.96;49.40;94797.92;1666103;83;21510;-57
2021/08/09 10:48:45;;;;;;;6.75;3.90;;;;;;;28.93;50.14;94791.98;1664702;83;21132;-58
2021/08/09 10:51:12;;;;;;;6.40;4.05;;;;;;;29.08;50.81;94796.97;1661042;83;21146;-60
2021/08/09 10:53:42;;;;;;;9.35;4.28;;;;;;;29.43;49.89;94790.97;1671995;83;22042;-59
2021/08/09 10:56:28;;;;;;;6.47;4.80;;;;;;;29.86;50.45;94796.39;1622972;86;21094;-58
2021/08/09 10:58:57;;;;;;;10.10;4.12;;;;;;;30.34;47.93;94790.15;1675821;83;21156;-58
2021/08/09 11:01:26;;;;;;;10.03;4.30;;;;;;;30.88;46.92;94785.73;1673748;83;21592;-58
2021/08/09 11:04:09;;;;;;;6.87;3.98;;;;;;;31.25;45.44;94787.55;1672396;83;21118;-58
2021/08/09 11:06:51;;;;;;;10.13;4.10;;;;;;;31.56;44.09;94793.05;1685548;83;21517;-61
2021/08/09 11:09:37;;;;;;;7.35;4.53;;;;;;;31.69;44.56;94799.10;1665147;83;21569;-58
2021/08/09 11:12:28;;;;;;;7.53;3.30;;;;;;;31.93;45.93;94798.29;1671530;84;21094;-59
2021/08/09 11:15:09;;;;;;;;;;;;;;;32.36;44.98;94796.24;1674263;83;21664;-60
2021/08/09 11:17:43;;;;;;;7.15;5.17;;;;;;;32.71;42.90;94796.92;1675970;83;20173;-55
2021/08/09 11:20:31;;;;;;;6.50;3.85;;;;;;;32.82;43.20;94799.23;1678259;83;21472;-60
2021/08/09 11:23:11;;;;;;;11.95;6.50;;;;;;;32.95;43.02;94801.71;1678399;83;21071;-57
2021/08/09 11:25:42;;;;;;;9.78;3.87;;;;;;;33.24;43.63;94798.31;1678597;83;21294;-56
2021/08/09 11:28:19;;;;;;;6.05;3.42;;;;;;;33.50;42.16;94799.66;1654706;83;21484;-58
2021/08/09 11:30:50;;;;;;;5.55;3.50;;;;;;;33.76;42.66;94800.95;1668614;83;22224;-58
2021/08/09 11:33:36;;;;;;;6.05;3.85;;;;;;;33.97;40.41;94800.45;1676612;83;21037;-60
2021/08/09 11:36:05;;;;;;;9.20;3.65;;;;;;;34.04;40.66;94800.30;1677449;83;21118;-57
2021/08/09 11:38:50;;;;;;;4.80;3.55;;;;;;;34.00;40.86;94801.41;1669999;83;21060;-56
2021/08/09 11:41:24;;;;;;;7.28;4.33;;;;;;;33.93;41.79;94793.75;1678854;83;21135;-62
2021/08/09 11:44:08;;;;;;;7.30;4.60;;;;;;;34.13;41.87;94803.09;1670884;83;21196;-61
2021/08/09 11:46:47;;;;;;;5.70;3.83;;;;;;;34.35;40.05;94798.34;1664576;84;21656;-58